Time;durP1;ratioP1;P1;durP2;ratioP2;P2;SDS_P1;SDS_P2;PMS_P1;PMS_P2;Temp;Humidity;BMP_temperature;BMP_pressure;BME280_temperature;BME280_humidity;BME280_pressure;Samples;Min_cycle;Max_cycle;Signal;HPM_P1;HPM_P2
2021/03/29 00:02:15;;;;;;;22.33;10.93;;;;;;;4.43;69.59;101550.55;126228;1099;104140;-79
2021/03/29 00:04:44;;;;;;;25.67;11.33;;;;;;;4.41;70.74;101539.14;126269;1099;104152;-78
2021/03/29 00:07:13;;;;;;;22.40;11.20;;;;;;;4.41;70.19;101546.01;126269;1099;104156;-79
2021/03/29 00:09:46;;;;;;;22.70;10.45;;;;;;;4.40;70.08;101570.20;126289;1099;105482;-79
2021/03/29 00:12:19;;;;;;;22.57;11.10;;;;;;;4.38;70.61;101543.17;126278;1099;104150;-78
2021/03/29 00:14:50;;;;;;;23.43;10.73;;;;;;;4.35;70.44;101541.27;126285;1099;104585;-78
2021/03/29 00:17:20;;;;;;;20.57;9.80;;;;;;;4.35;70.86;101545.53;126288;1099;104161;-78
2021/03/29 00:19:50;;;;;;;23.53;11.00;;;;;;;4.33;69.78;101553.21;126271;1099;104150;-78
2021/03/29 00:22:20;;;;;;;22.23;10.87;;;;;;;4.31;70.32;101544.41;126273;1099;104287;-78
2021/03/29 00:24:51;;;;;;;23.43;11.60;;;;;;;4.29;70.36;101544.28;126151;1099;104143;-78
2021/03/29 00:27:20;;;;;;;24.70;11.17;;;;;;;4.28;70.22;101542.45;126259;1099;104175;-78
2021/03/29 00:29:49;;;;;;;22.70;10.80;;;;;;;4.27;70.18;101538.07;126179;1099;104187;-78
2021/03/29 00:32:19;;;;;;;22.73;10.77;;;;;;;4.26;70.28;101537.95;126286;1098;104207;-78
2021/03/29 00:34:49;;;;;;;22.07;10.87;;;;;;;4.23;70.33;101530.81;126291;1099;103022;-79
2021/03/29 00:37:19;;;;;;;23.30;10.40;;;;;;;4.22;70.58;101538.48;126267;1099;104149;-79
2021/03/29 00:39:50;;;;;;;22.87;10.00;;;;;;;4.19;71.15;101535.66;126275;1099;104223;-78
2021/03/29 00:42:21;;;;;;;19.57;10.20;;;;;;;4.19;70.88;101540.84;126286;1099;104152;-79
2021/03/29 00:44:50;;;;;;;24.17;11.30;;;;;;;4.16;71.03;101528.55;126308;1099;104161;-77
2021/03/29 00:47:19;;;;;;;20.97;9.97;;;;;;;4.14;71.24;101530.09;126251;1099;104476;-78
2021/03/29 00:49:50;;;;;;;20.90;10.03;;;;;;;4.16;70.90;101527.62;126272;1099;104142;-78
2021/03/29 00:52:20;;;;;;;24.30;11.00;;;;;;;4.14;71.31;101533.62;125250;1099;104140;-78
2021/03/29 00:54:49;;;;;;;22.37;11.37;;;;;;;4.11;71.23;101520.39;125313;1099;104174;-79
2021/03/29 00:57:20;;;;;;;22.20;11.57;;;;;;;4.12;70.99;101536.88;125293;1099;104197;-79
2021/03/29 00:59:51;;;;;;;21.60;10.30;;;;;;;4.12;71.30;101518.69;125276;1102;104150;-78
2021/03/29 01:02:22;;;;;;;22.37;10.10;;;;;;;4.11;71.29;101527.26;125224;1101;104161;-78
2021/03/29 01:04:51;;;;;;;23.20;10.17;;;;;;;4.12;71.35;101510.90;125244;1102;104156;-78
2021/03/29 01:07:24;;;;;;;21.83;10.93;;;;;;;4.11;71.65;101522.06;125241;1102;104278;-79
2021/03/29 01:09:55;;;;;;;23.93;10.10;;;;;;;4.15;71.60;101516.33;125296;1100;104405;-78
2021/03/29 01:12:25;;;;;;;22.07;10.43;;;;;;;4.17;71.30;101519.95;125308;1101;104265;-79
2021/03/29 01:14:55;;;;;;;22.77;10.77;;;;;;;4.19;71.42;101512.27;125293;1102;104441;-79
2021/03/29 01:17:31;;;;;;;23.07;10.30;;;;;;;4.21;71.54;101516.81;125285;1102;104178;-78
2021/03/29 01:20:13;;;;;;;23.13;10.17;;;;;;;4.23;71.30;101504.83;125195;1099;104165;-79
2021/03/29 01:22:45;;;;;;;21.03;8.97;;;;;;;4.24;71.73;101521.31;125238;1102;104171;-79
2021/03/29 01:25:21;;;;;;;21.97;9.90;;;;;;;4.26;71.24;101510.27;126144;1099;104265;-79
2021/03/29 01:27:55;;;;;;;20.93;10.07;;;;;;;4.25;70.82;101511.04;126077;1099;104296;-78
2021/03/29 01:30:26;;;;;;;;;;;;;;;4.24;72.06;101505.73;125394;1099;104329;-79
2021/03/29 01:32:59;;;;;;;21.13;10.27;;;;;;;4.23;70.71;101510.03;126271;1099;104169;-79
2021/03/29 01:35:33;;;;;;;19.20;8.70;;;;;;;4.23;71.21;101507.44;126292;1099;104146;-79
2021/03/29 01:38:03;;;;;;;24.00;10.67;;;;;;;4.25;71.38;101520.54;126273;1099;104194;-78
2021/03/29 01:40:36;;;;;;;21.10;10.13;;;;;;;4.26;71.49;101514.56;126216;1099;105442;-79
2021/03/29 01:43:07;;;;;;;24.80;9.93;;;;;;;4.27;71.11;101509.49;126297;1098;104648;-79
2021/03/29 01:45:38;;;;;;;20.17;9.77;;;;;;;4.28;71.60;101510.38;126337;1099;104254;-79
2021/03/29 01:48:09;;;;;;;21.53;9.70;;;;;;;4.29;71.47;101515.70;126280;1099;104229;-79
2021/03/29 01:50:42;;;;;;;21.40;9.63;;;;;;;4.32;71.07;101523.73;126263;1099;104379;-79
2021/03/29 01:53:13;;;;;;;19.50;8.37;;;;;;;4.35;71.84;101488.36;126222;1099;104159;-80
2021/03/29 01:55:43;;;;;;;20.17;9.13;;;;;;;4.36;71.22;101511.87;126283;1099;104146;-79
2021/03/29 01:58:12;;;;;;;20.27;9.37;;;;;;;4.38;71.38;101519.78;126291;1099;104043;-78
2021/03/29 02:00:49;;;;;;;18.30;8.73;;;;;;;4.37;71.35;101497.20;126233;1099;104198;-79
2021/03/29 02:03:19;;;;;;;20.67;9.17;;;;;;;4.37;71.22;101486.81;126308;1099;101905;-78
2021/03/29 02:05:50;;;;;;;20.43;9.30;;;;;;;4.38;70.73;101504.19;126272;1099;104290;-79
2021/03/29 02:08:21;;;;;;;19.37;8.70;;;;;;;4.39;71.56;101500.81;126293;1099;104242;-79
2021/03/29 02:10:51;;;;;;;21.83;8.83;;;;;;;4.41;71.02;101501.83;126249;1099;104191;-78
2021/03/29 02:13:22;;;;;;;19.07;8.10;;;;;;;4.44;71.78;101490.00;126265;1099;104146;-78
2021/03/29 02:15:56;;;;;;;22.37;9.50;;;;;;;4.44;70.87;101495.19;126243;1099;104263;-79
2021/03/29 02:18:27;;;;;;;16.10;7.80;;;;;;;4.45;71.36;101491.78;126295;1099;104563;-79
2021/03/29 02:21:00;;;;;;;20.07;8.60;;;;;;;4.45;70.78;101506.48;126119;1099;104274;-79
2021/03/29 02:23:29;;;;;;;18.33;8.20;;;;;;;4.46;70.81;101497.91;126337;1099;104139;-79
2021/03/29 02:26:01;;;;;;;19.10;9.10;;;;;;;4.46;71.07;101482.31;126287;1099;104136;-79
2021/03/29 02:28:29;;;;;;;20.10;8.47;;;;;;;4.46;71.54;101490.11;126331;1099;104274;-79
2021/03/29 02:31:01;;;;;;;22.53;8.77;;;;;;;4.45;71.04;101481.39;126217;1099;104637;-79
2021/03/29 02:33:32;;;;;;;21.83;8.60;;;;;;;4.44;71.54;101489.07;126322;1099;104149;-78
2021/03/29 02:36:03;;;;;;;19.33;9.17;;;;;;;4.42;71.34;101485.45;126329;1099;104163;-79
2021/03/29 02:38:33;;;;;;;20.07;9.27;;;;;;;4.39;71.25;101472.23;126301;1099;104142;-79
2021/03/29 02:41:03;;;;;;;16.43;8.17;;;;;;;4.39;71.41;101485.22;126280;1099;104137;-79
2021/03/29 02:43:32;;;;;;;21.10;9.33;;;;;;;4.38;71.51;101473.01;126214;1099;104227;-79
2021/03/29 02:46:04;;;;;;;19.37;8.97;;;;;;;4.35;71.58;101472.77;126319;1099;104146;-78
2021/03/29 02:48:37;;;;;;;18.77;8.37;;;;;;;4.34;71.32;101468.39;126282;1099;104152;-79
2021/03/29 02:51:10;;;;;;;19.13;8.47;;;;;;;4.34;70.52;101471.88;126194;1099;104147;-79
2021/03/29 02:53:44;;;;;;;19.00;8.43;;;;;;;4.36;70.85;101469.40;126317;1099;102994;-79
2021/03/29 02:56:15;;;;;;;;;;;;;;;4.36;71.37;101466.80;126274;1099;104153;-79
2021/03/29 02:58:50;;;;;;;18.33;8.10;;;;;;;4.35;70.72;101459.78;126262;1099;101706;-79
2021/03/29 03:01:24;;;;;;;20.13;8.70;;;;;;;4.36;71.25;101456.41;126333;1099;104319;-79
2021/03/29 03:03:54;;;;;;;21.33;9.03;;;;;;;4.36;71.58;101479.80;126277;1100;104316;-78
2021/03/29 03:06:25;;;;;;;20.97;8.73;;;;;;;4.34;71.30;101458.89;126308;1099;104303;-79
2021/03/29 03:08:55;;;;;;;19.23;8.33;;;;;;;4.34;71.37;101451.09;126266;1099;104152;-79
2021/03/29 03:11:24;;;;;;;21.80;8.60;;;;;;;4.34;71.00;101452.80;126218;1098;104223;-79
2021/03/29 03:13:56;;;;;;;21.50;8.87;;;;;;;4.30;71.29;101457.77;126313;1099;110763;-79
2021/03/29 03:16:25;;;;;;;19.53;8.73;;;;;;;4.30;71.59;101449.97;126166;1099;104172;-77
2021/03/29 03:18:55;;;;;;;21.83;9.50;;;;;;;4.28;71.22;101450.63;126209;1099;102931;-80
2021/03/29 03:21:24;;;;;;;18.27;8.30;;;;;;;4.27;70.87;101470.52;126215;1099;104269;-78
2021/03/29 03:23:58;;;;;;;20.10;8.63;;;;;;;4.25;71.38;101451.28;126055;1099;104185;-78
2021/03/29 03:26:28;;;;;;;17.95;8.85;;;;;;;4.25;70.96;101448.69;126124;1099;104146;-79
2021/03/29 03:28:57;;;;;;;19.53;7.80;;;;;;;4.24;70.52;101456.36;126164;1099;104136;-79
2021/03/29 03:31:26;;;;;;;18.83;8.93;;;;;;;4.21;71.22;101449.27;126207;1099;104213;-78
2021/03/29 03:33:56;;;;;;;18.87;8.77;;;;;;;4.22;71.13;101447.55;126083;1099;104150;-79
2021/03/29 03:36:28;;;;;;;16.53;8.03;;;;;;;4.23;70.90;101444.19;126087;1098;104188;-79
2021/03/29 03:38:58;;;;;;;19.73;9.03;;;;;;;4.21;71.13;101433.67;126130;1099;104146;-79
2021/03/29 03:41:34;;;;;;;19.00;8.10;;;;;;;4.23;71.47;101447.67;126281;1099;104147;-79
2021/03/29 03:44:05;;;;;;;17.23;8.53;;;;;;;4.22;70.72;101445.85;126242;1099;104168;-78
2021/03/29 03:46:52;;;;;;;19.43;8.20;;;;;;;4.21;71.27;101438.87;126058;1099;104274;-78
2021/03/29 03:49:24;;;;;;;20.37;7.97;;;;;;;4.21;71.24;101437.98;126067;1098;104325;-78
2021/03/29 03:51:54;;;;;;;19.57;8.73;;;;;;;4.20;71.07;101442.24;126156;1099;104166;-78
2021/03/29 03:54:24;;;;;;;18.63;8.00;;;;;;;4.20;70.44;101447.44;125311;1099;104168;-78
2021/03/29 03:56:54;;;;;;;21.83;8.70;;;;;;;4.19;71.09;101434.33;126183;1099;104325;-78
2021/03/29 03:59:23;;;;;;;22.20;9.47;;;;;;;4.18;70.87;101445.53;126143;1099;104239;-79
2021/03/29 04:01:59;;;;;;;20.37;9.40;;;;;;;4.18;71.26;101454.22;126032;1099;104178;-79
2021/03/29 04:04:28;;;;;;;17.97;7.70;;;;;;;4.18;70.81;101435.14;126002;1099;104255;-78
2021/03/29 04:07:01;;;;;;;20.73;9.20;;;;;;;4.20;70.95;101447.44;126107;1098;104152;-78
2021/03/29 04:09:39;;;;;;;17.93;8.20;;;;;;;4.23;71.01;101446.78;126133;1099;104342;-78
2021/03/29 04:12:11;;;;;;;20.03;8.60;;;;;;;4.26;70.77;101447.02;126080;1099;104251;-79
2021/03/29 04:14:40;;;;;;;17.43;8.60;;;;;;;4.28;70.46;101451.52;126121;1099;104525;-78
2021/03/29 04:17:09;;;;;;;21.93;9.10;;;;;;;4.32;71.16;101458.77;126245;1099;104271;-79
2021/03/29 04:19:38;;;;;;;20.67;9.03;;;;;;;4.35;70.87;101451.98;126241;1099;104168;-79
2021/03/29 04:22:07;;;;;;;22.00;8.80;;;;;;;4.36;71.35;101457.30;126115;1099;104211;-79
2021/03/29 04:24:35;;;;;;;21.43;9.13;;;;;;;4.38;71.26;101462.61;126040;1098;104146;-79
2021/03/29 04:27:06;;;;;;;18.70;8.57;;;;;;;4.39;71.34;101452.33;126242;1099;104421;-78
2021/03/29 04:29:58;;;;;;;19.40;8.10;;;;;;;4.34;70.89;101434.61;126143;1099;104139;-80
2021/03/29 04:32:33;;;;;;;17.07;7.83;;;;;;;4.41;71.13;101462.84;126202;1099;104143;-78
2021/03/29 04:35:05;;;;;;;17.77;7.93;;;;;;;4.41;71.87;101461.17;126180;1099;104137;-78
2021/03/29 04:37:34;;;;;;;18.43;8.80;;;;;;;4.42;71.61;101469.87;126166;1099;104267;-78
2021/03/29 04:40:03;;;;;;;19.87;8.67;;;;;;;4.40;71.87;101482.74;126223;1099;104270;-79
2021/03/29 04:42:32;;;;;;;22.13;9.07;;;;;;;4.39;71.49;101451.44;126262;1098;104239;-78
2021/03/29 04:45:02;;;;;;;20.40;8.87;;;;;;;4.36;71.43;101469.40;126155;1099;104134;-78
2021/03/29 04:47:32;;;;;;;18.47;7.87;;;;;;;4.34;71.15;101476.19;126100;1099;104222;-79
2021/03/29 04:50:02;;;;;;;19.23;8.73;;;;;;;4.31;72.12;101471.64;126057;1099;104245;-79
2021/03/29 04:52:31;;;;;;;17.83;8.47;;;;;;;4.28;71.99;101472.30;126065;1099;104195;-78
2021/03/29 04:55:00;;;;;;;20.90;8.33;;;;;;;4.26;72.03;101470.40;126007;1099;104198;-78
2021/03/29 04:57:29;;;;;;;20.90;9.40;;;;;;;4.22;71.87;101483.93;126085;1099;104155;-78
2021/03/29 05:00:03;;;;;;;21.93;9.13;;;;;;;4.19;72.37;101466.44;125909;1099;104197;-78
2021/03/29 05:02:34;;;;;;;18.93;8.27;;;;;;;4.13;72.15;101452.97;126176;1099;104146;-77
2021/03/29 05:05:05;;;;;;;18.17;8.00;;;;;;;4.11;73.01;101478.83;126113;1099;104146;-77
2021/03/29 05:07:36;;;;;;;18.97;8.23;;;;;;;4.07;72.63;101481.08;126013;1099;104146;-77
2021/03/29 05:10:10;;;;;;;18.17;8.90;;;;;;;4.02;72.46;101477.19;126076;1099;104140;-77
2021/03/29 05:12:39;;;;;;;21.93;9.30;;;;;;;3.97;72.87;101479.43;126016;1099;104142;-78
2021/03/29 05:15:10;;;;;;;20.83;8.57;;;;;;;3.95;72.46;101466.33;125965;1099;104401;-78
2021/03/29 05:17:39;;;;;;;22.87;9.70;;;;;;;3.96;72.40;101465.55;126124;1099;104198;-78
2021/03/29 05:20:10;;;;;;;24.47;9.77;;;;;;;3.98;72.61;101469.97;125964;1099;104168;-79
2021/03/29 05:22:40;;;;;;;20.00;9.60;;;;;;;3.96;73.48;101511.41;126546;1099;104287;-79
2021/03/29 05:25:09;;;;;;;22.37;9.97;;;;;;;3.94;73.09;101474.00;126027;1099;102583;-80
2021/03/29 05:27:38;;;;;;;23.77;10.53;;;;;;;3.92;72.66;101480.77;126038;1099;104156;-78
2021/03/29 05:30:16;;;;;;;21.82;9.13;;;;;;;3.93;73.97;101472.20;126147;1099;104673;-78
2021/03/29 05:32:48;;;;;;;21.73;9.33;;;;;;;3.93;73.05;101492.98;126113;1099;104227;-78
2021/03/29 05:35:18;;;;;;;23.40;9.33;;;;;;;3.94;73.21;101490.51;126035;1099;104184;-78
2021/03/29 05:37:47;;;;;;;21.87;9.43;;;;;;;3.95;73.71;101483.61;126174;1099;104201;-78
2021/03/29 05:40:20;;;;;;;20.77;9.43;;;;;;;3.98;73.75;101475.16;125932;1098;104632;-79
2021/03/29 05:42:54;;;;;;;21.23;9.38;;;;;;;4.01;73.48;101485.80;126017;1099;104076;-78
2021/03/29 05:45:30;;;;;;;21.37;9.77;;;;;;;4.01;73.26;101488.39;126051;1099;104129;-79
2021/03/29 05:48:00;;;;;;;20.83;9.37;;;;;;;4.00;73.52;101494.36;125912;1099;104184;-79
2021/03/29 05:50:29;;;;;;;21.77;9.83;;;;;;;3.96;73.55;101483.73;125876;1099;104269;-79
2021/03/29 05:53:03;;;;;;;18.33;8.67;;;;;;;3.98;73.82;101501.14;125858;1099;104219;-79
2021/03/29 05:55:35;;;;;;;20.37;9.10;;;;;;;3.95;73.85;101502.69;126055;1099;104264;-77
2021/03/29 05:58:20;;;;;;;22.50;9.60;;;;;;;3.93;74.03;101513.76;125939;1099;104172;-79
2021/03/29 06:00:50;;;;;;;;;;;;;;;3.88;73.74;101520.26;125905;1099;104158;-80
2021/03/29 06:03:26;;;;;;;22.80;9.93;;;;;;;3.86;73.26;101524.44;125879;1099;104246;-78
2021/03/29 06:05:58;;;;;;;24.75;11.75;;;;;;;3.83;74.10;101516.41;125874;1099;104283;-79
2021/03/29 06:08:29;;;;;;;24.87;11.33;;;;;;;3.81;73.89;101530.97;125909;1099;104274;-78
2021/03/29 06:11:00;;;;;;;28.93;13.40;;;;;;;3.79;73.82;101520.45;125859;1099;104341;-78
2021/03/29 06:13:31;;;;;;;26.50;12.57;;;;;;;3.79;74.17;101533.44;125810;1099;104274;-78
2021/03/29 06:16:07;;;;;;;23.70;11.70;;;;;;;3.76;74.15;101528.89;125845;1099;104322;-80
2021/03/29 06:18:39;;;;;;;26.10;12.63;;;;;;;3.78;73.64;101529.02;125809;1099;104168;-80
2021/03/29 06:21:12;;;;;;;22.53;10.53;;;;;;;3.81;74.79;101537.05;125802;1100;104175;-79
2021/03/29 06:23:58;;;;;;;19.57;8.60;;;;;;;3.81;73.59;101531.86;126205;1099;104172;-79
2021/03/29 06:26:30;;;;;;;19.17;8.67;;;;;;;3.84;74.55;101529.50;125858;1099;105402;-78
2021/03/29 06:29:17;;;;;;;21.03;9.27;;;;;;;3.88;74.03;101541.95;125814;1099;104223;-79
2021/03/29 06:31:47;;;;;;;21.13;9.17;;;;;;;3.96;74.31;101535.67;125821;1099;104143;-79
2021/03/29 06:34:36;;;;;;;17.87;8.27;;;;;;;4.02;73.70;101545.65;125852;1099;104350;-79
2021/03/29 06:37:09;;;;;;;18.87;8.43;;;;;;;4.03;74.49;101546.55;125944;1099;104230;-79
2021/03/29 06:39:41;;;;;;;21.17;9.35;;;;;;;4.01;73.82;101537.73;125941;1099;104297;-79
2021/03/29 06:42:11;;;;;;;22.90;9.47;;;;;;;4.02;73.82;101539.52;125892;1097;104306;-79
2021/03/29 06:44:40;;;;;;;20.40;9.00;;;;;;;4.03;73.65;101549.14;125905;1099;104184;-79
2021/03/29 06:47:13;;;;;;;19.13;8.87;;;;;;;4.04;74.19;101543.17;125849;1099;104300;-79
2021/03/29 06:49:48;;;;;;;20.93;9.50;;;;;;;4.05;73.95;101547.56;126063;1099;104225;-79
2021/03/29 06:52:30;;;;;;;19.25;8.65;;;;;;;4.06;74.25;101551.98;126008;1099;104175;-81
2021/03/29 06:55:18;;;;;;;24.57;10.40;;;;;;;4.09;74.60;101547.03;126004;1099;104299;-79
2021/03/29 06:58:01;;;;;;;23.03;9.83;;;;;;;4.12;74.24;101553.36;125962;1099;104300;-78
2021/03/29 07:00:35;;;;;;;20.43;8.57;;;;;;;4.19;74.60;101561.63;125855;1099;104143;-79
2021/03/29 07:03:06;;;;;;;20.23;9.10;;;;;;;4.26;74.14;101563.94;125923;1099;104060;-80
2021/03/29 07:05:40;;;;;;;19.47;8.80;;;;;;;4.26;74.21;101557.03;125947;1099;104179;-80
2021/03/29 07:08:10;;;;;;;19.97;9.17;;;;;;;4.36;74.73;101552.55;126007;1099;104169;-79
2021/03/29 07:10:39;;;;;;;21.60;8.43;;;;;;;4.44;74.58;101551.45;125857;1099;104514;-79
2021/03/29 07:13:18;;;;;;;15.20;7.40;;;;;;;4.51;74.80;101558.94;125989;1099;101691;-78
2021/03/29 07:15:56;;;;;;;19.03;8.53;;;;;;;4.57;74.63;101549.02;125899;1099;104258;-75
2021/03/29 07:18:34;;;;;;;18.35;8.00;;;;;;;4.64;74.43;101556.50;125914;1099;104226;-78
2021/03/29 07:21:19;;;;;;;20.80;8.60;;;;;;;4.72;74.42;101562.29;125972;1099;104456;-79
2021/03/29 07:24:21;;;;;;;19.05;8.55;;;;;;;4.78;74.84;101549.72;126001;1099;104333;-79
2021/03/29 07:26:58;;;;;;;19.13;8.77;;;;;;;4.85;74.94;101561.52;125957;1099;104178;-79
2021/03/29 07:29:31;;;;;;;19.30;8.80;;;;;;;4.84;74.52;101551.89;125983;1099;104251;-78
2021/03/29 07:32:02;;;;;;;18.45;7.28;;;;;;;4.85;74.81;101566.72;125918;1098;104156;-77
2021/03/29 07:34:47;;;;;;;17.50;8.33;;;;;;;4.85;74.98;101562.41;125773;1099;104294;-78
2021/03/29 07:37:34;;;;;;;18.23;8.00;;;;;;;4.85;74.59;101556.31;125932;1099;104273;-77
2021/03/29 07:40:08;;;;;;;19.40;8.87;;;;;;;4.86;75.05;101563.30;126038;1099;104185;-78
2021/03/29 07:42:39;;;;;;;19.13;8.17;;;;;;;4.89;75.22;101562.64;126035;1099;104271;-78
2021/03/29 07:45:15;;;;;;;17.43;8.07;;;;;;;4.91;74.73;101574.06;126174;1099;104139;-77
2021/03/29 07:47:47;;;;;;;17.80;8.07;;;;;;;4.94;75.28;101563.89;125990;1098;104259;-77
2021/03/29 07:50:42;;;;;;;18.20;8.90;;;;;;;4.98;74.70;101558.14;126030;1099;104261;-77
2021/03/29 07:53:17;;;;;;;17.13;7.37;;;;;;;5.00;75.29;101575.68;125873;1099;104143;-78
2021/03/29 07:55:48;;;;;;;16.90;7.60;;;;;;;5.02;75.11;101561.08;125906;1099;104184;-78
2021/03/29 07:58:19;;;;;;;16.20;7.07;;;;;;;5.07;75.27;101574.44;125830;1099;104335;-78
2021/03/29 08:01:03;;;;;;;19.53;8.27;;;;;;;5.11;75.00;101575.56;125954;1099;104567;-78
2021/03/29 08:03:51;;;;;;;17.30;8.18;;;;;;;5.15;75.00;101572.41;125796;1099;104143;-78
2021/03/29 08:06:38;;;;;;;20.90;9.43;;;;;;;5.20;74.64;101569.37;125869;1099;104181;-78
2021/03/29 08:09:11;;;;;;;18.20;8.27;;;;;;;5.30;74.60;101583.03;125852;1099;104163;-78
2021/03/29 08:11:55;;;;;;;17.13;8.17;;;;;;;5.36;75.15;101579.22;126014;1099;104303;-78
2021/03/29 08:14:29;;;;;;;17.20;8.13;;;;;;;5.42;75.03;101593.46;126099;1099;104247;-78
2021/03/29 08:17:34;;;;;;;15.87;8.23;;;;;;;5.44;74.49;101586.66;125235;1099;104284;-78
2021/03/29 08:20:23;;;;;;;15.93;7.37;;;;;;;5.49;74.55;101582.72;125963;1099;104341;-78
2021/03/29 08:23:18;;;;;;;18.30;8.37;;;;;;;5.50;74.86;101603.66;125933;1099;104159;-79
2021/03/29 08:26:07;;;;;;;18.30;7.90;;;;;;;5.53;74.71;101597.75;126111;1099;104271;-78
2021/03/29 08:29:03;;;;;;;17.83;8.13;;;;;;;5.55;74.76;101610.10;125932;1099;104146;-78
2021/03/29 08:32:01;;;;;;;17.90;8.60;;;;;;;5.58;74.68;101628.55;125316;1099;104975;-78
2021/03/29 08:34:33;;;;;;;15.50;7.93;;;;;;;5.60;74.72;101610.44;125338;1099;104143;-79
2021/03/29 08:37:07;;;;;;;18.37;8.27;;;;;;;5.64;74.89;101611.56;126033;1099;104140;-79
2021/03/29 08:39:41;;;;;;;16.20;7.13;;;;;;;5.68;74.73;101618.81;125845;1099;104208;-77
2021/03/29 08:42:13;;;;;;;16.13;7.30;;;;;;;5.68;75.06;101611.90;125902;1099;104179;-76
2021/03/29 08:44:45;;;;;;;17.73;7.87;;;;;;;5.70;74.66;101610.34;125764;1099;104290;-78
2021/03/29 08:47:20;;;;;;;14.73;6.67;;;;;;;5.70;74.90;101623.36;126027;1099;104693;-78
2021/03/29 08:49:56;;;;;;;15.93;7.17;;;;;;;5.70;74.69;101614.61;126030;1099;104219;-79
2021/03/29 08:52:46;;;;;;;16.87;7.63;;;;;;;5.68;74.76;101627.52;126070;1099;104169;-79
2021/03/29 08:55:23;;;;;;;18.57;8.30;;;;;;;5.69;74.71;101626.74;126008;1099;104345;-80
2021/03/29 08:57:58;;;;;;;18.60;8.20;;;;;;;5.79;74.82;101627.42;126132;1099;104169;-79
2021/03/29 09:00:33;;;;;;;16.50;7.40;;;;;;;5.87;74.61;101623.66;125941;1099;101776;-79
2021/03/29 09:03:04;;;;;;;14.13;6.73;;;;;;;5.96;74.65;101626.94;126032;1099;104280;-79
2021/03/29 09:05:38;;;;;;;15.20;6.80;;;;;;;6.01;74.69;101622.09;125974;1099;104133;-79
2021/03/29 09:08:12;;;;;;;;;;;;;;;6.06;74.69;101626.84;125962;1099;104248;-80
2021/03/29 09:10:46;;;;;;;14.87;6.77;;;;;;;6.07;74.70;101639.06;125954;1099;104161;-78
2021/03/29 09:13:25;;;;;;;15.13;7.90;;;;;;;6.08;74.31;101625.25;125900;1099;104185;-77
2021/03/29 09:15:58;;;;;;;17.07;7.40;;;;;;;6.13;74.55;101630.79;125781;1099;104261;-79
2021/03/29 09:18:33;;;;;;;16.20;7.57;;;;;;;6.16;74.27;101624.91;125920;1099;104158;-78
2021/03/29 09:21:02;;;;;;;15.77;7.33;;;;;;;6.19;74.35;101620.80;125920;1099;104176;-78
2021/03/29 09:23:32;;;;;;;16.43;7.07;;;;;;;6.26;74.46;101627.34;125840;1099;104182;-77
2021/03/29 09:26:05;;;;;;;14.03;6.30;;;;;;;6.31;74.53;101646.85;125905;1099;104184;-78
2021/03/29 09:28:40;;;;;;;16.63;7.17;;;;;;;6.37;74.30;101642.04;125775;1099;104246;-78
2021/03/29 09:31:14;;;;;;;15.73;7.27;;;;;;;6.42;74.45;101637.15;125928;1099;104178;-78
2021/03/29 09:33:44;;;;;;;17.30;7.13;;;;;;;6.46;74.43;101645.30;125974;1099;104155;-79
2021/03/29 09:36:23;;;;;;;15.53;7.43;;;;;;;6.52;74.29;101638.73;125855;1099;104147;-79
2021/03/29 09:38:56;;;;;;;15.80;7.37;;;;;;;6.59;74.35;101640.95;125849;1099;104197;-76
2021/03/29 09:41:29;;;;;;;18.40;7.77;;;;;;;6.66;74.15;101635.38;125745;1099;104171;-80
2021/03/29 09:44:05;;;;;;;14.10;6.67;;;;;;;6.76;74.19;101647.34;125703;1099;102644;-77
2021/03/29 09:46:37;;;;;;;14.33;7.13;;;;;;;6.83;74.09;101639.16;125956;1099;104143;-77
2021/03/29 09:49:11;;;;;;;;;;;;;;;6.90;73.82;101632.64;125909;1099;104230;-77
2021/03/29 09:51:42;;;;;;;14.40;6.90;;;;;;;6.96;74.04;101635.67;125771;1099;104155;-77
2021/03/29 09:54:26;;;;;;;15.10;6.77;;;;;;;7.05;74.00;101636.30;125795;1099;104197;-78
2021/03/29 09:56:58;;;;;;;15.80;7.60;;;;;;;7.18;73.98;101638.03;125806;1099;104344;-77
2021/03/29 09:59:29;;;;;;;15.17;7.00;;;;;;;7.34;73.83;101634.77;125946;1099;104252;-77
2021/03/29 10:02:00;;;;;;;15.57;7.13;;;;;;;7.44;73.51;101631.05;125683;1099;104160;-78
2021/03/29 10:04:29;;;;;;;14.70;6.87;;;;;;;7.62;73.83;101626.13;126380;1098;104172;-77
2021/03/29 10:06:58;;;;;;;19.83;7.40;;;;;;;7.76;73.80;101638.41;125643;1099;104208;-77
2021/03/29 10:12:36;;;;;;;19.03;7.57;;;;;;;7.94;73.86;101630.83;125527;1099;118305;-79
2021/03/29 10:18:12;;;;;;;17.00;7.83;;;;;;;8.13;73.57;101626.78;125173;1099;104351;-79
2021/03/29 10:20:55;;;;;;;17.67;7.40;;;;;;;8.23;73.46;101631.80;125019;1099;104169;-76
2021/03/29 10:23:27;;;;;;;17.40;8.30;;;;;;;8.28;73.53;101625.14;125667;1098;104293;-76
2021/03/29 10:26:28;;;;;;;16.93;7.63;;;;;;;8.33;73.28;101638.51;125696;1099;104191;-77
2021/03/29 10:29:04;;;;;;;17.80;8.17;;;;;;;8.41;73.78;101629.42;125799;1099;104328;-76
2021/03/29 10:31:37;;;;;;;19.17;8.07;;;;;;;8.52;73.62;101623.17;125866;1099;104326;-77
2021/03/29 10:34:13;;;;;;;19.17;8.43;;;;;;;8.62;72.94;101628.17;125757;1099;104290;-77
2021/03/29 10:36:42;;;;;;;18.20;8.77;;;;;;;8.72;73.22;101631.36;125186;1099;102426;-77
2021/03/29 10:39:12;;;;;;;16.30;8.20;;;;;;;8.89;73.11;101630.66;125643;1099;104293;-76
2021/03/29 10:42:45;;;;;;;;;;;;;;;;;;;;;
2021/03/29 10:45:38;;;;;;;16.47;8.03;;;;;;;9.21;71.96;101628.16;124832;1102;104181;-77
2021/03/29 10:48:10;;;;;;;16.13;8.00;;;;;;;9.37;71.94;101627.38;125016;1102;104194;-77
2021/03/29 10:50:44;;;;;;;16.43;8.40;;;;;;;9.49;72.22;101621.13;125049;1100;104335;-78
2021/03/29 10:53:18;;;;;;;19.33;8.77;;;;;;;9.60;71.33;101642.70;124953;1099;119238;-78
2021/03/29 10:56:12;;;;;;;17.80;8.30;;;;;;;9.64;70.63;101669.98;125100;1099;104453;-77
2021/03/29 10:58:48;;;;;;;17.57;9.47;;;;;;;9.58;71.10;101610.24;125092;1099;104350;-77
2021/03/29 11:01:25;;;;;;;18.17;9.38;;;;;;;9.58;71.77;101640.80;125003;1101;104187;-78
2021/03/29 11:04:05;;;;;;;17.13;8.17;;;;;;;9.72;71.47;101637.25;125058;1102;104140;-77
2021/03/29 11:06:36;;;;;;;19.03;8.90;;;;;;;9.78;71.94;101645.46;125039;1102;105756;-77
2021/03/29 11:09:07;;;;;;;18.50;8.93;;;;;;;9.81;71.78;101668.34;125231;1099;104351;-79
2021/03/29 11:11:42;;;;;;;18.93;8.57;;;;;;;9.77;70.03;101667.27;125159;1099;104169;-79
2021/03/29 11:14:12;;;;;;;;;;;;;;;9.79;70.61;101685.70;125771;1099;104296;-78
2021/03/29 11:16:45;;;;;;;20.00;9.30;;;;;;;9.78;70.78;101650.70;125083;1099;104303;-77
2021/03/29 11:19:14;;;;;;;;;;;;;;;9.80;70.82;101643.86;125281;1099;104625;-77
2021/03/29 11:21:46;;;;;;;19.47;8.77;;;;;;;9.80;70.56;101643.86;125772;1098;105346;-78
2021/03/29 11:24:15;;;;;;;19.70;8.33;;;;;;;9.84;70.66;101650.16;125070;1099;104363;-77
2021/03/29 11:26:51;;;;;;;17.07;7.67;;;;;;;9.90;70.18;101632.16;125737;1097;104469;-77
2021/03/29 11:29:20;;;;;;;18.00;8.57;;;;;;;9.94;70.39;101646.34;124982;1099;104287;-77
2021/03/29 11:31:52;;;;;;;18.43;9.20;;;;;;;10.03;70.53;101629.39;125013;1099;104229;-77
2021/03/29 11:34:22;;;;;;;18.23;9.10;;;;;;;10.08;70.38;101635.82;125721;1099;104617;-77
2021/03/29 11:36:51;;;;;;;20.30;9.10;;;;;;;10.19;70.21;101643.36;125731;1099;104144;-76
2021/03/29 11:39:29;;;;;;;16.80;8.20;;;;;;;10.20;70.00;101635.58;125953;1099;104172;-77
2021/03/29 11:41:58;;;;;;;17.57;8.33;;;;;;;10.29;70.02;101629.95;125918;1098;104153;-78
2021/03/29 11:44:27;;;;;;;19.30;8.93;;;;;;;10.48;69.42;101625.74;125994;1099;119399;-77
2021/03/29 11:46:58;;;;;;;17.53;8.63;;;;;;;10.50;69.44;101638.14;125867;1099;104361;-77
2021/03/29 11:49:29;;;;;;;17.57;8.43;;;;;;;10.50;68.71;101632.89;125924;1099;104168;-77